createdAt,value
2023-01-18T00:00:32.276Z,58.67
2023-01-18T00:03:00.482Z,58.10
2023-01-18T00:05:28.346Z,69.03
2023-01-18T00:07:56.128Z,55.92
2023-01-18T00:10:25.197Z,69.82
2023-01-18T00:12:52.870Z,64.78
2023-01-18T00:15:20.552Z,56.47
2023-01-18T00:17:52.510Z,61.08
2023-01-18T00:20:22.613Z,136.85
2023-01-18T00:22:50.886Z,105.18
2023-01-18T00:25:19.578Z,93.45
2023-01-18T00:27:50.314Z,59.45
2023-01-18T00:30:20.692Z,48.15
2023-01-18T00:32:48.849Z,61.33
2023-01-18T00:35:17.127Z,53.60
2023-01-18T00:37:45.278Z,44.88
2023-01-18T00:40:13.310Z,45.10
2023-01-18T00:43:00.149Z,53.55
2023-01-18T00:45:29.501Z,42.35
2023-01-18T00:47:58.307Z,48.45
2023-01-18T00:50:26.323Z,49.80
2023-01-18T00:52:57.601Z,47.95
2023-01-18T00:55:25.683Z,57.83
2023-01-18T00:57:53.340Z,49.97
2023-01-18T01:00:26.596Z,57.92
2023-01-18T01:02:56.465Z,44.30
2023-01-18T01:05:43.546Z,44.60
2023-01-18T01:08:17.514Z,62.33
2023-01-18T01:10:46.352Z,66.20
2023-01-18T01:13:32.165Z,58.03
2023-01-18T01:16:17.275Z,57.13
2023-01-18T01:19:03.554Z,57.60
2023-01-18T01:21:49.121Z,62.05
2023-01-18T01:24:34.390Z,61.60
2023-01-18T01:27:02.118Z,49.78
2023-01-18T01:29:29.815Z,50.67
2023-01-18T01:31:57.507Z,48.00
2023-01-18T01:34:27.093Z,44.97
2023-01-18T01:36:54.736Z,37.15
2023-01-18T01:39:22.541Z,40.33
2023-01-18T01:41:50.649Z,44.22
2023-01-18T01:44:51.245Z,39.08
2023-01-18T01:47:32.682Z,41.50
2023-01-18T01:50:07.381Z,39.28
2023-01-18T01:52:38.596Z,38.10
2023-01-18T01:55:12.096Z,38.28
2023-01-18T01:57:45.513Z,34.00
2023-01-18T02:00:16.179Z,31.75
2023-01-18T02:02:47.716Z,36.33
2023-01-18T02:05:19.166Z,39.13
2023-01-18T02:07:47.340Z,35.03
2023-01-18T02:10:15.665Z,38.38
2023-01-18T02:12:46.916Z,37.50
2023-01-18T02:15:14.777Z,46.15
2023-01-18T02:18:18.021Z,38.47
2023-01-18T02:21:06.981Z,39.72
2023-01-18T02:24:16.909Z,44.63
2023-01-18T02:27:00.358Z,46.30
2023-01-18T02:30:03.819Z,44.72
2023-01-18T02:32:47.784Z,43.65
2023-01-18T02:35:26.963Z,43.85
2023-01-18T02:38:06.482Z,47.15
2023-01-18T02:40:44.074Z,43.17
2023-01-18T02:43:33.843Z,43.88
2023-01-18T02:46:21.696Z,49.42
2023-01-18T02:48:51.226Z,32.92
2023-01-18T02:51:18.869Z,34.20
2023-01-18T02:53:48.923Z,34.00
2023-01-18T02:56:20.231Z,36.75
2023-01-18T02:58:49.723Z,35.95
2023-01-18T03:01:26.645Z,44.40
2023-01-18T03:03:57.757Z,37.92
2023-01-18T03:06:29.158Z,39.10
2023-01-18T03:08:59.736Z,45.85
2023-01-18T03:11:37.356Z,42.17
2023-01-18T03:14:15.342Z,36.55
2023-01-18T03:16:59.901Z,44.63
2023-01-18T03:19:55.714Z,38.90
2023-01-18T03:22:44.986Z,42.83
2023-01-18T03:25:16.029Z,38.38
2023-01-18T03:28:03.888Z,43.42
2023-01-18T03:30:49.466Z,36.25
2023-01-18T03:33:38.628Z,40.50
2023-01-18T03:36:11.037Z,40.45
2023-01-18T03:41:12.603Z,33.42
2023-01-18T03:43:43.033Z,38.10
2023-01-18T03:46:10.787Z,31.33
2023-01-18T03:48:39.927Z,34.85
2023-01-18T03:51:17.370Z,33.83
2023-01-18T03:53:52.484Z,37.38
2023-01-18T03:56:25.293Z,29.70
2023-01-18T03:58:57.326Z,30.00
2023-01-18T04:01:25.906Z,34.80
2023-01-18T04:03:55.316Z,31.77
2023-01-18T04:06:23.465Z,32.28
2023-01-18T04:08:51.264Z,29.83
2023-01-18T04:11:19.493Z,35.58
2023-01-18T04:13:47.251Z,30.27
2023-01-18T04:16:15.076Z,31.00
2023-01-18T04:18:42.926Z,36.00
2023-01-18T04:21:12.093Z,30.70
2023-01-18T04:23:39.756Z,33.15
2023-01-18T04:26:07.418Z,37.38
2023-01-18T04:28:35.133Z,38.25
2023-01-18T04:31:02.936Z,43.55
2023-01-18T04:33:30.672Z,32.80
2023-01-18T04:35:58.376Z,36.60
2023-01-18T04:38:28.272Z,38.10
2023-01-18T04:40:55.946Z,36.42
2023-01-18T04:43:23.635Z,35.15
2023-01-18T04:45:55.324Z,42.55
2023-01-18T04:48:23.221Z,31.40
2023-01-18T04:50:51.275Z,33.08
2023-01-18T04:53:19.492Z,29.88
2023-01-18T04:55:48.679Z,39.95
2023-01-18T04:58:16.389Z,40.13
2023-01-18T05:00:44.556Z,38.55
2023-01-18T05:03:13.416Z,32.78
2023-01-18T05:05:41.255Z,35.22
2023-01-18T05:08:09.037Z,39.50
2023-01-18T05:10:36.822Z,35.33
2023-01-18T05:13:05.950Z,33.22
2023-01-18T05:15:34.919Z,40.42
2023-01-18T05:18:02.849Z,38.63
2023-01-18T05:20:30.583Z,41.85
2023-01-18T05:22:58.726Z,46.50
2023-01-18T05:25:26.622Z,42.42
2023-01-18T05:28:02.951Z,37.58
2023-01-18T05:30:32.016Z,39.85
2023-01-18T05:33:00.041Z,38.55
2023-01-18T05:35:27.999Z,45.25
2023-01-18T05:37:55.787Z,42.25
2023-01-18T05:40:23.503Z,40.58
2023-01-18T05:42:51.276Z,49.22
2023-01-18T05:45:19.893Z,40.25
2023-01-18T05:47:49.039Z,42.78
2023-01-18T05:50:17.086Z,42.88
2023-01-18T05:52:44.731Z,42.28
2023-01-18T05:55:13.508Z,46.97
2023-01-18T05:57:41.170Z,42.63
2023-01-18T06:00:11.178Z,39.10
2023-01-18T06:02:38.881Z,46.83
2023-01-18T06:05:08.850Z,43.33
2023-01-18T06:07:36.566Z,79.40
2023-01-18T06:10:04.775Z,80.68
2023-01-18T06:12:32.504Z,87.38
2023-01-18T06:15:00.571Z,87.50
2023-01-18T06:17:31.281Z,71.90
2023-01-18T06:19:59.935Z,71.18
2023-01-18T06:22:29.036Z,73.30
2023-01-18T06:24:56.802Z,63.55
2023-01-18T06:27:24.527Z,63.22
2023-01-18T06:29:52.226Z,52.38
2023-01-18T06:32:20.051Z,46.60
2023-01-18T06:34:47.759Z,46.30
2023-01-18T06:37:15.869Z,49.28
2023-01-18T06:39:45.015Z,69.38
2023-01-18T06:42:12.740Z,74.65
2023-01-18T06:44:41.011Z,48.10
2023-01-18T06:47:08.885Z,46.42
2023-01-18T06:49:36.620Z,52.35
2023-01-18T06:52:04.395Z,56.33
2023-01-18T06:54:32.146Z,52.88
2023-01-18T06:57:01.439Z,51.75
2023-01-18T06:59:29.502Z,47.22
2023-01-18T07:01:57.295Z,42.38
2023-01-18T07:04:26.231Z,49.30
2023-01-18T07:06:56.305Z,41.35
2023-01-18T07:09:24.281Z,47.28
2023-01-18T07:11:52.603Z,43.28
2023-01-18T07:14:22.272Z,53.95
2023-01-18T07:16:50.074Z,47.15
2023-01-18T07:19:17.997Z,50.35
2023-01-18T07:21:45.831Z,45.85
2023-01-18T07:24:13.643Z,51.85
2023-01-18T07:26:41.364Z,56.35
2023-01-18T07:29:09.263Z,78.95
2023-01-18T07:31:38.693Z,62.40
2023-01-18T07:34:06.486Z,56.88
2023-01-18T07:36:34.227Z,60.25
2023-01-18T07:39:03.275Z,50.40
2023-01-18T07:41:31.147Z,78.97
2023-01-18T07:43:59.374Z,66.53
2023-01-18T07:46:27.424Z,52.67
2023-01-18T07:48:56.571Z,49.30
2023-01-18T07:51:24.406Z,46.00
2023-01-18T07:53:54.871Z,43.13
2023-01-18T07:56:25.124Z,57.88
2023-01-18T07:58:53.694Z,67.45
2023-01-18T08:01:23.273Z,82.95
2023-01-18T08:03:53.601Z,59.92
2023-01-18T08:06:25.769Z,59.47
2023-01-18T08:08:55.192Z,46.78
2023-01-18T08:11:22.819Z,45.95
2023-01-18T08:13:52.508Z,56.97
2023-01-18T08:16:20.749Z,51.63
2023-01-18T08:18:50.472Z,48.40
2023-01-18T08:21:18.218Z,48.28
2023-01-18T08:23:47.392Z,53.28
2023-01-18T08:26:15.306Z,43.45
2023-01-18T08:28:44.731Z,44.80
2023-01-18T08:31:14.962Z,47.17
2023-01-18T08:33:45.484Z,40.72
2023-01-18T08:36:15.349Z,42.35
2023-01-18T08:38:43.543Z,32.65
2023-01-18T08:41:12.697Z,37.22
2023-01-18T08:43:40.466Z,40.05
2023-01-18T08:46:08.216Z,39.50
2023-01-18T08:48:36.008Z,47.63
2023-01-18T08:51:04.541Z,38.63
2023-01-18T08:53:32.948Z,34.88
2023-01-18T08:56:00.668Z,35.78
2023-01-18T08:58:32.595Z,38.53
2023-01-18T09:01:00.408Z,40.03
2023-01-18T09:03:28.205Z,39.65
2023-01-18T09:05:55.951Z,36.95
2023-01-18T09:08:23.670Z,34.55
2023-01-18T09:10:51.361Z,34.95
2023-01-18T09:13:19.106Z,36.90
2023-01-18T09:15:48.251Z,40.78
2023-01-18T09:18:16.052Z,35.85
2023-01-18T09:20:43.836Z,39.25
2023-01-18T09:23:11.845Z,37.17
2023-01-18T09:25:41.093Z,40.90
2023-01-18T09:28:08.851Z,38.75
2023-01-18T09:30:36.981Z,37.45
2023-01-18T09:33:06.204Z,39.30
2023-01-18T09:35:34.377Z,38.42
2023-01-18T09:38:02.066Z,44.53
2023-01-18T09:40:42.685Z,45.58
2023-01-18T09:43:17.258Z,43.63
2023-01-18T09:45:48.013Z,44.13
2023-01-18T09:48:29.258Z,47.53
2023-01-18T09:51:02.658Z,42.17
2023-01-18T09:53:43.848Z,39.25
2023-01-18T09:56:17.397Z,43.28
2023-01-18T09:58:58.459Z,42.58
2023-01-18T10:01:29.174Z,42.50
2023-01-18T10:04:02.019Z,50.50
2023-01-18T10:06:32.345Z,42.63
2023-01-18T10:09:04.259Z,47.42
2023-01-18T10:11:43.139Z,41.13
2023-01-18T10:14:18.977Z,41.17
2023-01-18T10:16:55.552Z,37.00
2023-01-18T10:19:28.453Z,38.28
2023-01-18T10:22:04.305Z,36.92
2023-01-18T10:24:50.360Z,34.47
2023-01-18T10:27:38.994Z,47.60
2023-01-18T10:30:51.606Z,40.15
2023-01-18T10:33:22.427Z,38.03
2023-01-18T10:35:55.978Z,37.25
2023-01-18T10:38:27.345Z,36.67
2023-01-18T10:40:57.775Z,35.88
2023-01-18T10:43:27.180Z,38.00
2023-01-18T10:45:55.530Z,34.95
2023-01-18T10:48:29.032Z,32.47
2023-01-18T10:50:59.996Z,28.92
2023-01-18T10:53:31.868Z,31.15
2023-01-18T10:56:04.441Z,29.20
2023-01-18T10:58:35.860Z,30.75
2023-01-18T11:01:04.923Z,27.85
2023-01-18T11:03:44.580Z,26.17
2023-01-18T11:06:16.959Z,27.65
2023-01-18T11:11:18.940Z,29.70
2023-01-18T11:13:48.163Z,28.23
2023-01-18T11:16:18.130Z,27.15
2023-01-18T11:19:00.010Z,24.90
2023-01-18T11:21:40.937Z,20.23
2023-01-18T11:24:13.630Z,24.92
2023-01-18T11:26:52.944Z,23.08
2023-01-18T11:29:23.228Z,24.60
2023-01-18T11:31:52.894Z,24.25
2023-01-18T11:34:26.118Z,25.60
2023-01-18T11:36:56.687Z,19.48
2023-01-18T11:39:28.562Z,21.10
2023-01-18T11:42:23.242Z,24.85
2023-01-18T11:45:08.323Z,25.55
2023-01-18T11:47:47.683Z,21.35
2023-01-18T11:50:25.091Z,21.92
2023-01-18T11:52:57.935Z,22.65
2023-01-18T11:55:32.641Z,19.65
2023-01-18T11:58:01.559Z,21.50
2023-01-18T12:00:38.063Z,22.70
2023-01-18T12:03:24.106Z,24.25
2023-01-18T12:05:56.292Z,20.85
2023-01-18T12:08:52.109Z,24.20
2023-01-18T12:11:45.872Z,22.38
2023-01-18T12:14:31.497Z,21.95
2023-01-18T12:17:15.412Z,19.88
2023-01-18T12:19:58.361Z,19.40
2023-01-18T12:22:53.696Z,18.80
2023-01-18T12:25:40.482Z,16.98
2023-01-18T12:28:19.955Z,20.58
2023-01-18T12:30:59.286Z,14.65
2023-01-18T12:33:43.648Z,13.80
2023-01-18T12:36:52.226Z,14.85
2023-01-18T12:39:41.766Z,14.98
2023-01-18T12:42:17.117Z,14.75
2023-01-18T12:45:00.843Z,13.23
2023-01-18T12:47:36.084Z,14.05
2023-01-18T12:50:13.787Z,14.38
2023-01-18T12:52:47.143Z,14.65
2023-01-18T12:55:21.270Z,18.30
2023-01-18T12:57:54.905Z,14.95
2023-01-18T13:00:26.328Z,15.23
2023-01-18T13:02:57.597Z,13.05
2023-01-18T13:05:35.122Z,17.00
2023-01-18T13:08:09.097Z,13.27
2023-01-18T13:10:38.439Z,12.90
2023-01-18T13:13:13.274Z,13.35
2023-01-18T13:15:47.608Z,15.25
2023-01-18T13:18:21.773Z,12.18
2023-01-18T13:21:07.472Z,13.95
2023-01-18T13:23:45.255Z,10.70
2023-01-18T13:26:24.283Z,13.98
2023-01-18T13:29:16.240Z,14.43
2023-01-18T13:31:44.848Z,15.00
2023-01-18T13:34:47.693Z,18.00
2023-01-18T13:37:45.314Z,14.70
2023-01-18T13:40:23.737Z,16.20
2023-01-18T13:42:51.499Z,12.73
2023-01-18T13:45:24.039Z,15.68
2023-01-18T13:50:41.256Z,13.48
2023-01-18T13:53:31.585Z,12.52
2023-01-18T13:56:34.230Z,13.95
2023-01-18T13:59:06.116Z,16.42
2023-01-18T14:01:37.832Z,12.80
2023-01-18T14:04:22.196Z,17.42
2023-01-18T14:06:51.194Z,12.75
2023-01-18T14:09:29.751Z,13.77
2023-01-18T14:11:59.359Z,12.48
2023-01-18T14:14:31.057Z,13.50
2023-01-18T14:17:06.180Z,15.98
2023-01-18T14:20:00.158Z,15.55
2023-01-18T14:22:40.136Z,12.95
2023-01-18T14:25:25.666Z,11.82
2023-01-18T14:28:05.614Z,11.07
2023-01-18T14:30:36.679Z,11.77
2023-01-18T14:33:15.488Z,13.38
2023-01-18T14:35:51.881Z,13.60
2023-01-18T14:38:21.334Z,11.57
2023-01-18T14:40:51.254Z,12.57
2023-01-18T14:43:25.993Z,12.38
2023-01-18T14:45:58.078Z,9.25
2023-01-18T14:48:30.804Z,11.38
2023-01-18T14:51:00.544Z,11.43
2023-01-18T14:53:30.757Z,11.75
2023-01-18T14:56:09.228Z,12.85
2023-01-18T14:58:39.753Z,12.65
2023-01-18T15:01:09.529Z,14.77
2023-01-18T15:03:39.766Z,10.80
2023-01-18T15:06:16.223Z,12.50
2023-01-18T15:08:45.381Z,12.48
2023-01-18T15:11:14.686Z,11.05
2023-01-18T15:13:49.063Z,11.57
2023-01-18T15:16:21.413Z,12.15
2023-01-18T15:18:52.067Z,13.32
2023-01-18T15:21:23.523Z,16.02
2023-01-18T15:23:54.020Z,14.40
2023-01-18T15:26:35.302Z,10.98
2023-01-18T15:29:09.440Z,13.85
2023-01-18T15:31:45.769Z,12.63
2023-01-18T15:34:16.880Z,14.18
2023-01-18T15:36:46.127Z,20.27
2023-01-18T15:39:14.403Z,15.75
2023-01-18T15:41:44.186Z,12.80
2023-01-18T15:44:43.785Z,20.92
2023-01-18T15:47:16.790Z,59.58
2023-01-18T15:49:48.815Z,16.02
2023-01-18T15:52:17.665Z,14.20
2023-01-18T15:54:51.048Z,18.13
2023-01-18T15:57:21.222Z,35.90
2023-01-18T15:59:49.178Z,19.33
2023-01-18T16:02:20.191Z,16.67
2023-01-18T16:04:49.444Z,16.95
2023-01-18T16:07:37.771Z,18.27
2023-01-18T16:10:30.377Z,26.80
2023-01-18T16:13:30.906Z,17.95
2023-01-18T16:16:09.430Z,36.10
2023-01-18T16:18:37.221Z,17.25
2023-01-18T16:21:13.939Z,16.67
2023-01-18T16:23:46.150Z,15.18
2023-01-18T16:26:15.188Z,15.52
2023-01-18T16:28:43.134Z,14.93
2023-01-18T16:31:11.094Z,21.63
2023-01-18T16:33:38.849Z,20.48
2023-01-18T16:36:18.092Z,20.90
2023-01-18T16:38:46.567Z,17.13
2023-01-18T16:41:17.031Z,17.48
2023-01-18T16:43:45.013Z,19.67
2023-01-18T16:46:13.212Z,19.23
2023-01-18T16:48:41.001Z,15.73
2023-01-18T16:51:17.082Z,18.90
2023-01-18T16:53:45.005Z,16.92
2023-01-18T16:56:15.984Z,17.63
2023-01-18T16:58:43.815Z,17.42
2023-01-18T17:01:15.760Z,16.63
2023-01-18T17:03:43.985Z,16.13
2023-01-18T17:06:17.616Z,16.33
2023-01-18T17:08:46.014Z,16.45
2023-01-18T17:11:14.018Z,17.13
2023-01-18T17:13:42.021Z,16.50
2023-01-18T17:16:15.609Z,15.48
2023-01-18T17:18:43.577Z,13.02
2023-01-18T17:21:11.564Z,20.33
2023-01-18T17:23:41.137Z,21.05
2023-01-18T17:26:11.802Z,16.65
2023-01-18T17:28:40.003Z,19.90
2023-01-18T17:31:08.460Z,17.95
2023-01-18T17:33:40.389Z,23.20
2023-01-18T17:36:09.766Z,13.65
2023-01-18T17:38:37.563Z,17.40
2023-01-18T17:41:11.320Z,17.70
2023-01-18T17:43:41.207Z,16.77
2023-01-18T17:46:09.160Z,16.25
2023-01-18T17:48:37.038Z,16.75
2023-01-18T17:51:09.104Z,28.05
2023-01-18T17:53:37.174Z,19.42
2023-01-18T17:56:09.180Z,21.48
2023-01-18T17:58:36.981Z,15.65
2023-01-18T18:01:11.452Z,15.70
2023-01-18T18:03:40.403Z,19.13
2023-01-18T18:06:09.245Z,19.45
2023-01-18T18:08:38.855Z,18.27
2023-01-18T18:11:10.290Z,23.85
2023-01-18T18:13:38.430Z,15.57
2023-01-18T18:16:18.873Z,14.73
2023-01-18T18:18:47.097Z,16.35
2023-01-18T18:21:14.881Z,16.50
2023-01-18T18:23:42.593Z,17.88
2023-01-18T18:26:11.696Z,19.63
2023-01-18T18:28:39.504Z,13.73
2023-01-18T18:31:07.437Z,14.35
2023-01-18T18:33:35.171Z,13.77
2023-01-18T18:36:03.034Z,11.38
2023-01-18T18:38:31.178Z,14.65
2023-01-18T18:41:03.697Z,14.27
2023-01-18T18:46:00.450Z,12.90
2023-01-18T18:48:28.634Z,12.98
2023-01-18T18:50:56.536Z,15.23
2023-01-18T18:53:36.961Z,11.35
2023-01-18T18:56:06.904Z,10.98
2023-01-18T18:58:36.822Z,8.77
2023-01-18T19:01:05.591Z,10.07
2023-01-18T19:03:33.856Z,16.13
2023-01-18T19:06:02.032Z,11.55
2023-01-18T19:08:29.949Z,12.57
2023-01-18T19:10:57.651Z,11.20
2023-01-18T19:13:25.361Z,16.13
2023-01-18T19:15:54.621Z,13.98
2023-01-18T19:18:23.306Z,16.10
2023-01-18T19:20:51.565Z,13.75
2023-01-18T19:23:20.773Z,12.73
2023-01-18T19:25:49.180Z,19.15
2023-01-18T19:28:17.445Z,14.10
2023-01-18T19:30:45.583Z,15.70
2023-01-18T19:33:15.454Z,12.18
2023-01-18T19:35:45.298Z,13.40
2023-01-18T19:38:13.409Z,14.45
2023-01-18T19:40:41.173Z,14.63
2023-01-18T19:43:08.871Z,13.57
2023-01-18T19:45:38.887Z,14.93
2023-01-18T19:48:06.945Z,16.67
2023-01-18T19:50:36.093Z,63.33
2023-01-18T19:53:04.092Z,17.30
2023-01-18T19:55:31.896Z,20.50
2023-01-18T19:58:01.546Z,15.52
2023-01-18T20:00:30.309Z,15.32
2023-01-18T20:02:59.609Z,15.25
2023-01-18T20:05:28.026Z,14.93
2023-01-18T20:07:57.123Z,16.88
2023-01-18T20:10:24.914Z,14.23
2023-01-18T20:12:52.791Z,16.98
2023-01-18T20:15:23.137Z,17.33
2023-01-18T20:17:51.225Z,18.58
2023-01-18T20:20:31.384Z,16.25
2023-01-18T20:23:03.989Z,16.42
2023-01-18T20:25:32.632Z,21.15
2023-01-18T20:28:00.393Z,22.30
2023-01-18T20:30:28.235Z,21.27
2023-01-18T20:32:56.264Z,20.45
2023-01-18T20:35:23.962Z,21.38
2023-01-18T20:37:52.133Z,17.88
2023-01-18T20:40:21.511Z,14.38
2023-01-18T20:42:49.181Z,14.85
2023-01-18T20:45:17.071Z,18.10
2023-01-18T20:47:44.760Z,16.23
2023-01-18T20:50:12.940Z,18.00
2023-01-18T20:52:40.650Z,20.67
2023-01-18T20:55:12.776Z,16.02
2023-01-18T20:57:42.151Z,18.30
2023-01-18T21:00:12.469Z,18.45
2023-01-18T21:02:41.196Z,20.23
2023-01-18T21:05:09.725Z,19.33
2023-01-18T21:07:37.518Z,18.58
2023-01-18T21:10:06.368Z,16.33
2023-01-18T21:12:33.995Z,15.38
2023-01-18T21:15:06.472Z,15.75
2023-01-18T21:20:01.766Z,14.98
2023-01-18T21:22:29.535Z,12.52
2023-01-18T21:24:58.039Z,15.68
2023-01-18T21:27:29.213Z,12.93
2023-01-18T21:29:56.889Z,13.25
2023-01-18T21:32:29.097Z,12.73
2023-01-18T21:34:56.796Z,17.38
2023-01-18T21:37:24.563Z,15.55
2023-01-18T21:39:52.350Z,16.33
2023-01-18T21:42:37.573Z,13.10
2023-01-18T21:45:23.409Z,18.77
2023-01-18T21:47:52.475Z,16.25
2023-01-18T21:50:37.591Z,16.10
2023-01-18T21:53:22.810Z,13.45
2023-01-18T21:55:52.156Z,16.05
2023-01-18T21:58:37.349Z,15.60
2023-01-18T22:01:11.453Z,17.05
2023-01-18T22:03:41.397Z,16.38
2023-01-18T22:06:09.530Z,16.48
2023-01-18T22:08:37.185Z,17.10
2023-01-18T22:11:04.949Z,16.38
2023-01-18T22:13:33.656Z,17.65
2023-01-18T22:16:04.256Z,15.27
2023-01-18T22:18:31.953Z,20.00
2023-01-18T22:21:01.115Z,14.43
2023-01-18T22:23:28.830Z,18.92
2023-01-18T22:25:56.660Z,15.05
2023-01-18T22:28:24.331Z,17.08
2023-01-18T22:30:52.312Z,19.75
2023-01-18T22:33:20.071Z,17.02
2023-01-18T22:35:47.729Z,22.67
2023-01-18T22:38:16.885Z,24.73
2023-01-18T22:40:44.648Z,19.85
2023-01-18T22:43:12.373Z,16.50
2023-01-18T22:45:40.009Z,18.27
2023-01-18T22:48:08.186Z,16.33
2023-01-18T22:50:35.873Z,17.23
2023-01-18T22:53:03.595Z,16.20
2023-01-18T22:55:34.207Z,18.33
2023-01-18T22:58:02.160Z,17.40
2023-01-18T23:00:30.047Z,15.98
2023-01-18T23:02:57.841Z,18.92
2023-01-18T23:05:25.535Z,17.77
2023-01-18T23:07:53.245Z,18.08
2023-01-18T23:10:20.987Z,17.17
2023-01-18T23:12:50.021Z,16.60
2023-01-18T23:15:35.757Z,18.92
2023-01-18T23:18:03.741Z,17.80
2023-01-18T23:20:31.417Z,16.67
2023-01-18T23:22:59.137Z,18.30
2023-01-18T23:25:26.968Z,19.17
2023-01-18T23:27:56.068Z,16.80
2023-01-18T23:30:23.743Z,14.48
2023-01-18T23:32:51.438Z,19.17
2023-01-18T23:35:19.170Z,19.13
2023-01-18T23:37:46.832Z,17.83
2023-01-18T23:40:32.415Z,20.88
2023-01-18T23:43:20.158Z,19.17
2023-01-18T23:46:05.388Z,20.42
2023-01-18T23:48:50.697Z,20.48
2023-01-18T23:51:35.838Z,19.65
2023-01-18T23:54:16.643Z,20.27
2023-01-18T23:56:45.579Z,21.50
2023-01-18T23:59:14.894Z,24.98
